Time;durP1;ratioP1;P1;durP2;ratioP2;P2;SDS_P1;SDS_P2;PMS_P1;PMS_P2;Temp;Humidity;BMP_temperature;BMP_pressure;BME280_temperature;BME280_humidity;BME280_pressure;Samples;Min_cycle;Max_cycle;Signal;HPM_P1;HPM_P2
2024/01/09 00:01:30;;;;;;;8.80;6.47;;;;;;;-0.37;100.00;62872.19;5070963;28;20247;-53
2024/01/09 00:03:56;;;;;;;10.50;6.77;;;;;;;-0.20;100.00;62890.00;5053119;28;20231;-53
2024/01/09 00:06:22;;;;;;;10.57;6.67;;;;;;;-0.34;100.00;62877.88;5070126;28;20279;-56
2024/01/09 00:08:48;;;;;;;10.97;6.87;;;;;;;-0.48;100.00;62857.78;5052531;28;20686;-57
2024/01/09 00:11:14;;;;;;;9.97;6.40;;;;;;;-0.63;100.00;62844.06;5071401;28;20283;-53
2024/01/09 00:13:40;;;;;;;10.57;6.97;;;;;;;-0.65;100.00;62841.88;5070849;28;20208;-51
2024/01/09 00:16:06;;;;;;;10.30;6.60;;;;;;;-0.48;100.00;62860.28;5070876;28;20368;-51
2024/01/09 00:18:32;;;;;;;8.60;6.67;;;;;;;-0.55;100.00;62852.72;5070791;28;20207;-52
2024/01/09 00:20:58;;;;;;;10.70;6.50;;;;;;;-0.50;100.00;62860.03;5070751;28;20213;-51
2024/01/09 00:23:23;;;;;;;11.40;6.97;;;;;;;-0.59;100.00;62850.84;5070080;28;20207;-53
2024/01/09 00:25:49;;;;;;;10.37;6.47;;;;;;;-0.56;100.00;62851.63;5070613;28;20196;-53
2024/01/09 00:28:14;;;;;;;12.67;6.97;;;;;;;-0.76;100.00;62829.97;5070764;28;20208;-56
2024/01/09 00:30:40;;;;;;;10.07;6.33;;;;;;;-0.65;100.00;62841.88;5052953;28;20193;-54
2024/01/09 00:33:06;;;;;;;10.03;6.30;;;;;;;-0.68;100.00;62838.09;5070628;28;20604;-53
2024/01/09 00:35:31;;;;;;;8.53;6.53;;;;;;;-0.46;100.00;62864.91;5070581;28;20243;-52
2024/01/09 00:37:57;;;;;;;9.63;6.17;;;;;;;-0.24;100.00;62886.22;5070463;28;20212;-53
2024/01/09 00:40:22;;;;;;;8.57;6.73;;;;;;;-0.38;100.00;62873.56;5072911;28;20211;-52
2024/01/09 00:42:48;;;;;;;11.90;7.30;;;;;;;-0.33;100.00;62876.50;5074306;28;20253;-54
2024/01/09 00:45:14;;;;;;;10.47;7.10;;;;;;;-0.41;100.00;62867.84;5074098;28;20551;-53
2024/01/09 00:47:40;;;;;;;12.00;7.50;;;;;;;-0.35;100.00;62874.34;5074015;28;20204;-52
2024/01/09 00:50:06;;;;;;;11.47;6.80;;;;;;;-0.42;100.00;62868.69;5074101;28;20650;-52
2024/01/09 00:52:31;;;;;;;9.73;6.70;;;;;;;-0.57;100.00;62853.00;5074165;28;20258;-55
2024/01/09 00:54:57;;;;;;;10.60;6.50;;;;;;;-0.51;100.00;62858.97;5073998;28;20184;-53
2024/01/09 00:57:22;;;;;;;11.37;6.87;;;;;;;-0.50;100.00;62855.63;5073947;28;20331;-53
2024/01/09 00:59:48;;;;;;;9.37;6.50;;;;;;;-0.54;100.00;62853.22;5073803;28;20184;-53
2024/01/09 01:02:14;;;;;;;12.87;6.93;;;;;;;-0.54;100.00;62853.78;5073777;28;20213;-55
2024/01/09 01:04:39;;;;;;;9.27;6.13;;;;;;;-0.41;100.00;62867.84;5039370;28;20188;-52
2024/01/09 01:07:05;;;;;;;11.60;7.13;;;;;;;-0.16;100.00;62899.84;5073772;28;20357;-53
2024/01/09 01:09:30;;;;;;;8.87;5.70;;;;;;;-0.35;100.00;62874.34;5073759;28;20196;-53
2024/01/09 01:11:56;;;;;;;10.47;6.47;;;;;;;-0.44;100.00;62866.53;5074171;28;20212;-54
2024/01/09 01:14:23;;;;;;;10.27;6.17;;;;;;;-0.22;100.00;62888.41;5073881;28;20187;-53
2024/01/09 01:16:49;;;;;;;13.83;7.80;;;;;;;-0.07;100.00;62901.63;5055930;28;20212;-55
2024/01/09 01:19:15;;;;;;;9.53;6.40;;;;;;;-0.04;100.00;62907.34;5055785;28;20281;-54
2024/01/09 01:21:40;;;;;;;9.77;6.80;;;;;;;-0.13;100.00;62898.16;5055568;28;20239;-55
2024/01/09 01:24:07;;;;;;;8.10;5.97;;;;;;;-0.34;100.00;62872.41;5073704;28;20185;-54
2024/01/09 01:26:33;;;;;;;8.80;6.30;;;;;;;-0.33;100.00;62876.50;5073602;28;20196;-53
2024/01/09 01:28:59;;;;;;;10.17;6.37;;;;;;;-0.50;100.00;62862.50;5055618;28;20194;-53
2024/01/09 01:31:24;;;;;;;7.57;5.33;;;;;;;-0.23;100.00;62887.31;5073905;28;20200;-53
2024/01/09 01:33:50;;;;;;;11.93;7.27;;;;;;;-0.12;100.00;62901.16;5073354;28;20283;-53
2024/01/09 01:36:16;;;;;;;10.33;6.20;;;;;;;-0.20;100.00;62893.03;5073426;28;20192;-53
2024/01/09 01:38:45;;;;;;;8.90;5.80;;;;;;;0.07;100.00;62919.25;5073202;28;20208;-54
2024/01/09 01:41:10;;;;;;;8.60;6.17;;;;;;;-0.02;100.00;62910.03;5055237;28;20217;-53
2024/01/09 01:43:36;;;;;;;10.33;6.33;;;;;;;-0.02;100.00;62907.56;5073213;28;20295;-53
2024/01/09 01:46:05;;;;;;;11.73;6.37;;;;;;;-0.21;100.00;62888.94;5073357;28;20196;-52
2024/01/09 01:48:31;;;;;;;8.43;5.80;;;;;;;-0.20;100.00;62888.09;5073288;28;20577;-52
2024/01/09 01:50:57;;;;;;;8.47;5.73;;;;;;;-0.34;100.00;62875.41;5073082;28;20192;-52
2024/01/09 01:53:24;;;;;;;10.30;6.47;;;;;;;-0.15;100.00;62895.44;5073047;28;20207;-57
2024/01/09 01:55:50;;;;;;;8.03;6.27;;;;;;;-0.29;100.00;62880.84;5073337;28;20201;-56
2024/01/09 01:58:16;;;;;;;8.77;5.87;;;;;;;-0.30;100.00;62874.78;5073108;28;20593;-52
2024/01/09 02:00:42;;;;;;;7.40;5.47;;;;;;;-0.17;100.00;62896.28;5072965;28;20220;-53
2024/01/09 02:03:08;;;;;;;9.33;5.47;;;;;;;-0.28;100.00;62881.34;5055322;28;20297;-53
2024/01/09 02:05:35;;;;;;;7.43;4.93;;;;;;;-0.33;100.00;62875.97;5073152;28;20645;-53
2024/01/09 02:08:01;;;;;;;8.50;5.77;;;;;;;-0.26;100.00;62886.00;5073120;28;20216;-55
2024/01/09 02:10:27;;;;;;;9.03;5.47;;;;;;;-0.36;100.00;62873.25;5073068;28;20198;-55
2024/01/09 02:12:52;;;;;;;8.00;4.97;;;;;;;-0.55;100.00;62849.69;5072764;28;20659;-53
2024/01/09 02:15:18;;;;;;;9.90;6.03;;;;;;;-0.51;100.00;62857.03;5072588;28;20204;-52
2024/01/09 02:17:44;;;;;;;8.97;6.23;;;;;;;-0.61;100.00;62846.22;5072660;28;20808;-52
2024/01/09 02:20:21;;;;;;;9.10;5.37;;;;;;;-0.42;100.00;62864.28;5072642;28;20188;-51
2024/01/09 02:22:46;;;;;;;9.83;5.63;;;;;;;-0.57;100.00;62850.53;5072811;28;20217;-52
2024/01/09 02:25:12;;;;;;;8.13;5.60;;;;;;;-0.52;100.00;62855.94;5072559;28;20630;-51
2024/01/09 02:27:49;;;;;;;10.30;5.70;;;;;;;-0.43;100.00;62868.16;5072647;28;20211;-51
2024/01/09 02:30:16;;;;;;;8.73;5.70;;;;;;;-0.52;100.00;62855.41;5072514;28;20199;-51
2024/01/09 02:32:42;;;;;;;8.47;5.77;;;;;;;-0.35;100.00;62876.81;5072543;28;20240;-53
2024/01/09 02:35:08;;;;;;;6.47;5.00;;;;;;;-0.17;100.00;62893.81;5072367;28;20578;-52
2024/01/09 02:37:34;;;;;;;6.70;4.77;;;;;;;-0.52;100.00;62852.91;5072376;28;20200;-51
2024/01/09 02:40:00;;;;;;;8.10;5.00;;;;;;;-0.50;100.00;62860.56;5072272;28;20189;-53
2024/01/09 02:42:27;;;;;;;6.57;4.50;;;;;;;-0.36;100.00;62877.66;5054400;28;20220;-51
2024/01/09 02:44:56;;;;;;;6.17;4.07;;;;;;;-0.58;100.00;62849.44;5072323;28;20638;-52
2024/01/09 02:47:22;;;;;;;5.63;4.00;;;;;;;-0.52;100.00;62850.44;5072257;28;20289;-54
2024/01/09 02:49:48;;;;;;;5.93;3.80;;;;;;;-0.56;100.00;62851.63;5054183;28;20192;-55
2024/01/09 02:52:17;;;;;;;6.57;3.90;;;;;;;-0.47;100.00;62861.34;5072165;28;20212;-53
2024/01/09 02:54:43;;;;;;;5.17;3.67;;;;;;;-0.45;100.00;62863.53;5054734;28;20192;-53
2024/01/09 02:57:10;;;;;;;5.77;3.90;;;;;;;-0.06;100.00;62907.63;5072122;28;20240;-51
2024/01/09 02:59:36;;;;;;;5.23;3.50;;;;;;;-0.09;100.00;62899.47;5054158;28;20193;-53
2024/01/09 03:02:01;;;;;;;3.23;2.83;;;;;;;-0.03;100.00;62908.44;5071088;28;20224;-53
2024/01/09 03:04:28;;;;;;;4.53;2.60;;;;;;;0.21;100.00;62933.84;5054255;28;20208;-53
2024/01/09 03:06:53;;;;;;;3.77;2.10;;;;;;;0.25;100.00;62936.25;5071754;28;20240;-53
2024/01/09 03:09:19;;;;;;;2.50;2.10;;;;;;;0.28;100.00;62941.44;5053990;28;20234;-54
2024/01/09 03:11:44;;;;;;;3.27;2.37;;;;;;;0.20;100.00;62933.34;5053884;28;20197;-53
2024/01/09 03:14:11;;;;;;;2.23;1.93;;;;;;;0.02;100.00;62915.78;5071963;28;20199;-53
2024/01/09 03:16:37;;;;;;;2.47;2.00;;;;;;;-0.26;100.00;62884.06;5071890;28;20193;-53
2024/01/09 03:19:02;;;;;;;2.30;1.37;;;;;;;0.05;100.00;62919.56;5071806;28;20193;-52
2024/01/09 03:21:28;;;;;;;4.73;1.87;;;;;;;0.07;100.00;62921.72;5071632;28;20223;-53
2024/01/09 03:23:53;;;;;;;2.30;1.73;;;;;;;0.23;100.00;62939.03;5053801;28;20185;-60
2024/01/09 03:26:21;;;;;;;2.83;1.70;;;;;;;0.25;100.00;62938.19;5072027;28;20578;-52
2024/01/09 03:28:46;;;;;;;3.30;2.00;;;;;;;-0.27;100.00;62885.47;5071503;28;20212;-52
2024/01/09 03:31:21;;;;;;;2.60;1.97;;;;;;;-0.37;100.00;62872.19;5071664;28;20266;-54
2024/01/09 03:33:47;;;;;;;2.53;2.33;;;;;;;-0.43;100.00;62865.13;5053444;28;20212;-52
2024/01/09 03:36:13;;;;;;;3.73;2.40;;;;;;;-0.50;100.00;62860.56;5071626;28;20223;-54
2024/01/09 03:38:41;;;;;;;2.63;1.97;;;;;;;-0.37;100.00;62871.63;5071458;28;20270;-55
2024/01/09 03:41:06;;;;;;;3.33;2.33;;;;;;;-0.37;100.00;62872.19;5071261;28;20217;-54
2024/01/09 03:43:32;;;;;;;2.90;2.10;;;;;;;0.06;100.00;62920.09;5071438;28;20288;-53
2024/01/09 03:45:57;;;;;;;4.50;2.50;;;;;;;-0.18;100.00;62892.72;5053237;28;20193;-54
2024/01/09 03:48:23;;;;;;;3.43;2.70;;;;;;;-0.23;100.00;62889.81;5053328;28;20706;-54
2024/01/09 03:50:49;;;;;;;7.50;2.33;;;;;;;-0.28;100.00;62881.34;5071498;28;20203;-54
2024/01/09 03:53:15;;;;;;;3.37;2.60;;;;;;;-0.49;100.00;62859.19;5071135;28;20592;-53
2024/01/09 03:55:40;;;;;;;4.17;3.00;;;;;;;-0.55;100.00;62855.19;5053232;28;20242;-54
2024/01/09 03:58:06;;;;;;;4.00;3.07;;;;;;;-0.47;100.00;62858.88;5070988;28;20288;-51
2024/01/09 04:00:32;;;;;;;7.30;3.90;;;;;;;-0.47;100.00;62861.34;5071162;28;20216;-53
2024/01/09 04:02:58;;;;;;;4.50;3.27;;;;;;;-0.49;100.00;62861.13;5053127;28;20721;-53
2024/01/09 04:05:23;;;;;;;4.37;3.03;;;;;;;-0.21;100.00;62888.94;5071241;28;20566;-51
2024/01/09 04:07:49;;;;;;;4.70;3.30;;;;;;;-0.20;100.00;62892.50;5070980;28;20213;-54
2024/01/09 04:10:14;;;;;;;4.73;3.20;;;;;;;-0.23;100.00;62886.78;5071134;28;20283;-53
2024/01/09 04:12:40;;;;;;;4.60;3.20;;;;;;;-0.56;100.00;62853.53;5070947;28;20246;-53
2024/01/09 04:15:06;;;;;;;4.90;3.20;;;;;;;-0.47;100.00;62860.81;5070186;28;20185;-54
2024/01/09 04:17:31;;;;;;;7.03;3.63;;;;;;;-0.46;100.00;62862.44;5052767;28;20258;-52
2024/01/09 04:19:57;;;;;;;3.87;3.20;;;;;;;-0.41;100.00;62867.84;5070783;28;20216;-52
2024/01/09 04:22:23;;;;;;;5.37;3.77;;;;;;;-0.51;100.00;62858.97;5070754;28;20378;-54
2024/01/09 04:24:48;;;;;;;4.33;2.60;;;;;;;-0.46;100.00;62862.44;5070772;28;20185;-51
2024/01/09 04:27:14;;;;;;;4.90;3.37;;;;;;;-0.39;100.00;62870.00;5070742;28;20283;-53
2024/01/09 04:29:39;;;;;;;4.97;3.33;;;;;;;-0.55;100.00;62854.63;5060350;22;20929;-53
2024/01/09 04:32:05;;;;;;;5.00;3.03;;;;;;;-0.30;100.00;62879.19;5070042;28;20224;-53
2024/01/09 04:34:30;;;;;;;4.17;2.80;;;;;;;-0.24;100.00;62885.69;5069528;28;20184;-53
2024/01/09 04:36:56;;;;;;;5.97;3.07;;;;;;;-0.10;100.00;62898.91;5052251;28;20213;-58
2024/01/09 04:39:22;;;;;;;4.00;2.67;;;;;;;0.09;100.00;62923.34;5070534;28;20235;-53
2024/01/09 04:41:47;;;;;;;4.13;2.83;;;;;;;0.11;100.00;62926.06;5070739;28;20204;-52
2024/01/09 04:44:13;;;;;;;3.97;2.57;;;;;;;0.14;100.00;62926.28;5070616;28;20212;-53
2024/01/09 04:46:39;;;;;;;6.27;3.70;;;;;;;0.09;100.00;62920.88;5070627;28;20666;-53
2024/01/09 04:49:04;;;;;;;6.07;3.00;;;;;;;0.03;100.00;62914.91;5070537;28;20721;-56
2024/01/09 04:51:31;;;;;;;6.60;2.77;;;;;;;0.10;100.00;62921.97;5070423;28;20249;-53
2024/01/09 04:53:57;;;;;;;3.43;2.87;;;;;;;-0.04;100.00;62907.88;5070468;28;20555;-53
2024/01/09 04:56:22;;;;;;;6.13;3.63;;;;;;;0.05;100.00;62919.00;5070242;28;20246;-52
2024/01/09 04:58:53;;;;;;;4.10;2.97;;;;;;;-0.14;100.00;62897.06;5070163;28;20300;-56
2024/01/09 05:01:20;;;;;;;4.80;3.20;;;;;;;-0.36;100.00;62875.72;5070195;28;20213;-54
2024/01/09 05:03:47;;;;;;;4.80;3.00;;;;;;;0.04;100.00;62918.50;5070537;28;20244;-53
2024/01/09 05:06:15;;;;;;;4.07;3.00;;;;;;;-0.20;100.00;62890.00;5070180;28;20188;-53
2024/01/09 05:08:41;;;;;;;5.30;3.13;;;;;;;-0.24;100.00;62883.75;5052730;28;20212;-54
2024/01/09 05:11:07;;;;;;;3.53;2.70;;;;;;;-0.23;100.00;62889.25;5052481;28;20567;-54
2024/01/09 05:13:32;;;;;;;3.23;2.53;;;;;;;-0.10;100.00;62900.84;5070381;28;20266;-55
2024/01/09 05:15:58;;;;;;;3.53;2.63;;;;;;;-0.17;100.00;62893.81;5070219;28;20681;-54
2024/01/09 05:18:23;;;;;;;4.70;3.17;;;;;;;-0.21;100.00;62891.41;5070185;28;20740;-55
2024/01/09 05:20:49;;;;;;;5.03;2.90;;;;;;;-0.28;100.00;62881.91;5069937;28;20227;-53
2024/01/09 05:23:14;;;;;;;3.83;2.50;;;;;;;-0.11;100.00;62897.28;5069905;28;20204;-54
2024/01/09 05:25:41;;;;;;;3.27;2.47;;;;;;;0.06;100.00;62917.63;5036745;28;20197;-54
2024/01/09 05:28:07;;;;;;;11.30;3.40;;;;;;;0.44;100.00;62961.78;5073744;28;20218;-52
2024/01/09 05:30:32;;;;;;;3.93;2.10;;;;;;;0.44;100.00;62958.78;5080847;22;20229;-53
2024/01/09 05:32:58;;;;;;;3.10;2.00;;;;;;;0.44;100.00;62961.78;5073358;28;20317;-54
2024/01/09 05:35:23;;;;;;;2.23;1.80;;;;;;;0.52;100.00;62967.44;5073224;28;20263;-52
2024/01/09 05:37:49;;;;;;;3.73;2.40;;;;;;;0.77;100.00;62994.50;5055264;28;20702;-53
2024/01/09 05:40:16;;;;;;;3.37;2.47;;;;;;;0.89;100.00;63006.97;5073132;28;20200;-54
2024/01/09 05:42:43;;;;;;;4.07;2.20;;;;;;;0.92;100.00;63010.75;5072901;28;20205;-53
2024/01/09 05:45:11;;;;;;;3.17;2.03;;;;;;;0.99;100.00;63020.81;5054869;28;20224;-58
2024/01/09 05:47:37;;;;;;;4.10;2.33;;;;;;;1.04;100.00;63023.75;5072959;28;20235;-53
2024/01/09 05:50:03;;;;;;;3.80;1.97;;;;;;;1.03;100.00;63024.63;5072895;28;20250;-54
2024/01/09 05:52:29;;;;;;;2.80;2.03;;;;;;;1.09;100.00;63026.69;5072384;28;20213;-55
2024/01/09 05:54:55;;;;;;;2.40;2.03;;;;;;;1.18;100.00;63035.91;5072847;28;20197;-54
2024/01/09 05:57:21;;;;;;;2.83;1.67;;;;;;;1.13;100.00;63033.50;5054807;28;20247;-53
2024/01/09 05:59:47;;;;;;;6.10;2.03;;;;;;;1.04;100.00;63025.69;5072735;28;20340;-54
2024/01/09 06:02:12;;;;;;;1.70;1.60;;;;;;;1.20;100.00;63040.56;5072785;28;20220;-57
2024/01/09 06:04:38;;;;;;;3.07;1.70;;;;;;;1.13;100.00;63035.97;5072612;28;20185;-60
2024/01/09 06:07:03;;;;;;;3.77;1.63;;;;;;;1.19;100.00;63040.00;5072616;28;20213;-54
2024/01/09 06:09:29;;;;;;;1.90;1.30;;;;;;;1.13;100.00;63035.47;5072394;28;20564;-55
2024/01/09 06:11:55;;;;;;;3.53;1.53;;;;;;;1.18;100.00;63041.41;5072302;28;20232;-54
2024/01/09 06:14:21;;;;;;;3.40;2.10;;;;;;;1.27;100.00;63048.69;5072749;28;20185;-55
2024/01/09 06:16:46;;;;;;;3.77;2.20;;;;;;;1.40;100.00;63062.22;5072515;28;20712;-53
2024/01/09 06:19:12;;;;;;;4.93;2.20;;;;;;;1.28;100.00;63049.22;5038053;28;20200;-55
2024/01/09 06:21:38;;;;;;;4.73;2.53;;;;;;;1.38;100.00;63060.63;5072204;28;20349;-54
2024/01/09 06:24:03;;;;;;;5.10;2.90;;;;;;;1.27;100.00;63048.69;5072376;28;20276;-54
2024/01/09 06:26:30;;;;;;;6.23;2.73;;;;;;;1.23;100.00;63041.34;5054157;28;20266;-54
2024/01/09 06:28:55;;;;;;;3.77;2.57;;;;;;;1.55;100.00;63078.50;5072734;28;20257;-55
2024/01/09 06:31:21;;;;;;;4.83;2.60;;;;;;;1.44;100.00;63066.56;5072350;28;20265;-54
2024/01/09 06:33:46;;;;;;;3.50;2.27;;;;;;;1.45;100.00;63065.72;5072618;28;20630;-55
2024/01/09 06:36:12;;;;;;;2.33;1.80;;;;;;;1.42;100.00;63064.41;5071293;28;20590;-55
2024/01/09 06:38:37;;;;;;;1.67;1.57;;;;;;;1.37;100.00;63059.00;5069874;28;20699;-54
2024/01/09 06:41:03;;;;;;;4.17;2.33;;;;;;;1.18;100.00;63038.94;5071959;28;20208;-53
2024/01/09 06:43:29;;;;;;;2.43;2.20;;;;;;;1.29;100.00;63050.31;5072524;28;20213;-52
2024/01/09 06:45:54;;;;;;;3.57;2.17;;;;;;;1.22;100.00;63043.28;5054244;28;20251;-52
2024/01/09 06:48:20;;;;;;;3.07;2.40;;;;;;;1.12;100.00;63034.38;5071973;28;20239;-53
2024/01/09 06:50:45;;;;;;;3.50;2.60;;;;;;;0.92;100.00;63010.75;5072397;28;20627;-54
2024/01/09 06:53:11;;;;;;;2.20;1.90;;;;;;;1.00;100.00;63018.88;5054401;28;20702;-53
2024/01/09 06:55:36;;;;;;;6.77;2.60;;;;;;;0.77;100.00;62994.50;5072172;28;20254;-54
2024/01/09 06:58:02;;;;;;;6.63;2.93;;;;;;;0.42;100.00;62957.16;5054130;28;20294;-53
2024/01/09 07:00:28;;;;;;;3.00;2.50;;;;;;;0.53;100.00;62969.06;5071881;28;20216;-54
2024/01/09 07:02:54;;;;;;;3.50;2.97;;;;;;;0.72;100.00;62984.13;5071868;28;20213;-53
2024/01/09 07:05:20;;;;;;;5.03;2.30;;;;;;;0.41;100.00;62955.50;5053648;28;20193;-55
2024/01/09 07:07:47;;;;;;;4.43;2.87;;;;;;;0.63;100.00;62979.34;5072084;28;20544;-54
2024/01/09 07:10:13;;;;;;;4.13;2.90;;;;;;;0.85;100.00;63003.16;5071866;28;20188;-54
2024/01/09 07:12:39;;;;;;;4.83;2.67;;;;;;;1.17;100.00;63037.84;5071950;28;20205;-52
2024/01/09 07:15:08;;;;;;;5.67;3.33;;;;;;;1.11;100.00;63031.34;5072254;28;20585;-53
2024/01/09 07:17:34;;;;;;;5.03;3.17;;;;;;;1.01;100.00;63018.03;5053689;28;20208;-54
2024/01/09 07:20:00;;;;;;;4.93;3.20;;;;;;;0.92;100.00;63010.75;5071693;28;20200;-55
2024/01/09 07:22:25;;;;;;;4.13;2.80;;;;;;;0.58;100.00;62972.00;5079165;22;20221;-55
2024/01/09 07:24:51;;;;;;;4.10;2.70;;;;;;;0.58;100.00;62974.47;5071628;28;20191;-53
2024/01/09 07:27:16;;;;;;;4.90;2.83;;;;;;;0.60;100.00;62973.63;5053459;28;20208;-54
2024/01/09 07:29:42;;;;;;;4.20;2.97;;;;;;;0.32;100.00;62946.31;5053518;28;20651;-54
2024/01/09 07:32:08;;;;;;;6.60;3.30;;;;;;;0.11;100.00;62923.56;5071849;28;20211;-53
2024/01/09 07:34:33;;;;;;;3.80;3.03;;;;;;;-0.13;100.00;62897.59;5071446;28;20658;-53
2024/01/09 07:36:59;;;;;;;4.77;3.37;;;;;;;0.31;100.00;62947.16;5071745;28;20246;-53
2024/01/09 07:39:24;;;;;;;11.40;3.73;;;;;;;0.31;100.00;62945.22;5071462;28;20610;-52
2024/01/09 07:41:50;;;;;;;8.30;4.13;;;;;;;0.28;100.00;62941.44;5071451;28;20308;-53
2024/01/09 07:44:17;;;;;;;4.07;3.20;;;;;;;0.40;100.00;62954.97;5071411;28;20551;-54
2024/01/09 07:46:43;;;;;;;4.87;3.93;;;;;;;0.30;100.00;62944.16;5071237;28;20275;-52
2024/01/09 07:49:09;;;;;;;5.50;3.27;;;;;;;0.46;100.00;62961.47;5053288;28;20214;-53
2024/01/09 07:51:34;;;;;;;5.93;3.13;;;;;;;0.35;100.00;62949.00;5070977;28;20192;-52
2024/01/09 07:54:00;;;;;;;5.83;4.07;;;;;;;0.58;100.00;62976.97;5071345;28;20219;-54
2024/01/09 07:56:25;;;;;;;6.97;3.73;;;;;;;0.66;100.00;62983.16;5053647;28;20242;-53
2024/01/09 07:58:51;;;;;;;3.70;2.70;;;;;;;0.77;100.00;62992.03;5071438;28;20193;-52
2024/01/09 08:01:17;;;;;;;4.70;3.13;;;;;;;0.78;100.00;62995.59;5070886;28;20717;-53
2024/01/09 08:03:43;;;;;;;6.50;3.77;;;;;;;0.79;100.00;62997.22;5070868;28;20216;-55
2024/01/09 08:06:15;;;;;;;8.03;3.33;;;;;;;0.72;100.00;62991.56;5071425;28;20276;-55
2024/01/09 08:08:41;;;;;;;3.53;2.80;;;;;;;0.79;100.00;62996.66;5070931;28;20690;-54
2024/01/09 08:11:09;;;;;;;7.57;3.17;;;;;;;0.78;100.00;62993.66;5070995;28;20193;-54
2024/01/09 08:13:36;;;;;;;6.13;3.93;;;;;;;0.71;100.00;62988.00;5070966;28;20200;-55
2024/01/09 08:16:01;;;;;;;7.07;4.00;;;;;;;0.87;100.00;63002.84;5070689;28;20196;-56
2024/01/09 08:18:27;;;;;;;6.13;4.33;;;;;;;0.60;100.00;62973.63;5070657;28;20204;-54
2024/01/09 08:20:53;;;;;;;7.03;3.87;;;;;;;0.65;100.00;62983.97;5070980;28;20316;-55
2024/01/09 08:23:19;;;;;;;5.63;3.80;;;;;;;0.54;100.00;62969.59;5070778;28;20342;-53
2024/01/09 08:25:45;;;;;;;5.00;3.37;;;;;;;0.41;100.00;62955.50;5070821;28;20569;-53
2024/01/09 08:28:10;;;;;;;7.93;4.77;;;;;;;0.22;100.00;62935.50;5070622;28;20425;-53
2024/01/09 08:30:36;;;;;;;13.57;7.43;;;;;;;0.44;100.00;62958.78;5070798;28;20201;-54
2024/01/09 08:33:02;;;;;;;23.40;11.80;;;;;;;0.38;100.00;62952.28;5070611;28;20212;-53
2024/01/09 08:35:27;;;;;;;15.10;6.40;;;;;;;0.54;100.00;62969.59;5070679;28;20279;-53
2024/01/09 08:37:53;;;;;;;14.80;7.93;;;;;;;0.55;100.00;62971.22;5052644;28;20215;-54
2024/01/09 08:40:19;;;;;;;6.03;4.03;;;;;;;0.73;100.00;62987.69;5070735;28;20563;-54
2024/01/09 08:42:44;;;;;;;7.27;4.23;;;;;;;0.88;100.00;63005.88;5052562;28;20219;-53
2024/01/09 08:45:13;;;;;;;5.53;4.03;;;;;;;0.92;100.00;63010.75;5070577;28;20193;-54
2024/01/09 08:47:38;;;;;;;6.73;3.93;;;;;;;0.92;100.00;63010.22;5070510;28;20724;-52
2024/01/09 08:50:05;;;;;;;5.87;4.33;;;;;;;0.89;100.00;63007.50;5070461;28;20197;-53
2024/01/09 08:52:31;;;;;;;6.63;4.27;;;;;;;1.01;100.00;63018.03;5070397;28;20215;-53
2024/01/09 08:54:56;;;;;;;7.60;4.63;;;;;;;1.12;100.00;63032.44;5070257;28;20185;-53
2024/01/09 08:57:22;;;;;;;11.53;5.53;;;;;;;1.17;100.00;63040.31;5052580;28;20215;-53
2024/01/09 08:59:48;;;;;;;9.03;5.33;;;;;;;1.08;100.00;63027.56;5070456;28;20214;-54
2024/01/09 09:02:14;;;;;;;5.63;3.60;;;;;;;0.87;100.00;63007.81;5073787;28;20283;-53
2024/01/09 09:04:41;;;;;;;5.10;4.27;;;;;;;0.79;100.00;62996.66;5073781;28;20185;-53
2024/01/09 09:07:14;;;;;;;3.87;3.20;;;;;;;0.80;100.00;62995.28;5055842;28;20236;-54
2024/01/09 09:09:40;;;;;;;5.27;3.47;;;;;;;0.77;100.00;62994.50;5073804;28;20193;-52
2024/01/09 09:12:06;;;;;;;4.00;2.63;;;;;;;0.71;100.00;62988.53;5073908;28;20208;-53
2024/01/09 09:14:31;;;;;;;11.33;4.07;;;;;;;0.17;100.00;62932.56;5073734;28;20658;-52
2024/01/09 09:16:57;;;;;;;13.17;4.10;;;;;;;-0.36;100.00;62872.69;5073688;28;20205;-53
2024/01/09 09:19:23;;;;;;;4.97;3.43;;;;;;;-0.03;100.00;62908.97;5073775;28;20216;-52
2024/01/09 09:21:52;;;;;;;4.37;3.27;;;;;;;0.16;100.00;62929.00;5073503;28;20422;-55
2024/01/09 09:24:17;;;;;;;10.47;4.00;;;;;;;0.21;100.00;62936.88;5073548;28;20185;-52
2024/01/09 09:26:43;;;;;;;6.70;4.27;;;;;;;0.35;100.00;62949.00;5073866;28;20702;-53
2024/01/09 09:29:09;;;;;;;17.93;4.13;;;;;;;0.27;100.00;62940.34;5073384;28;20697;-58
2024/01/09 09:31:38;;;;;;;9.73;4.17;;;;;;;0.03;100.00;62914.38;5073769;28;20193;-53
2024/01/09 09:34:03;;;;;;;7.20;4.03;;;;;;;-0.29;100.00;62878.38;5073558;28;20173;-52
2024/01/09 09:36:29;;;;;;;8.63;3.87;;;;;;;0.13;100.00;62923.28;5073431;28;20268;-53
2024/01/09 09:38:55;;;;;;;5.17;3.80;;;;;;;0.54;100.00;62969.59;5073297;28;20578;-53
2024/01/09 09:41:20;;;;;;;4.73;3.40;;;;;;;0.51;100.00;62966.34;5055505;28;20221;-52
2024/01/09 09:43:54;;;;;;;7.00;3.67;;;;;;;0.75;100.00;62994.81;5073331;28;20243;-53
2024/01/09 09:46:23;;;;;;;6.27;3.60;;;;;;;1.00;100.00;63016.41;5055391;28;20189;-53
2024/01/09 09:48:52;;;;;;;5.57;3.33;;;;;;;0.74;100.00;62991.81;5073162;28;20236;-55
2024/01/09 09:51:18;;;;;;;4.63;3.07;;;;;;;0.93;100.00;63009.34;5073475;28;20196;-53
2024/01/09 09:53:44;;;;;;;4.83;3.30;;;;;;;0.51;100.00;62963.88;5073001;28;20208;-52
2024/01/09 09:56:14;;;;;;;4.57;2.97;;;;;;;0.75;100.00;62992.34;5072629;28;20597;-57
2024/01/09 09:58:42;;;;;;;4.43;3.10;;;;;;;0.97;100.00;63013.16;5072487;28;20288;-52
2024/01/09 10:01:14;;;;;;;5.70;3.80;;;;;;;0.92;100.00;63010.75;5055217;28;20277;-53
2024/01/09 10:03:49;;;;;;;5.87;3.47;;;;;;;1.12;100.00;63031.88;5072920;28;20205;-53
2024/01/09 10:06:18;;;;;;;7.77;3.67;;;;;;;0.29;100.00;62942.53;5073014;28;20201;-52
2024/01/09 10:08:48;;;;;;;7.83;4.47;;;;;;;-0.14;100.00;62896.50;5072832;28;20200;-55
2024/01/09 10:11:15;;;;;;;5.63;3.00;;;;;;;0.55;100.00;62970.66;5054757;28;20265;-53
2024/01/09 10:13:42;;;;;;;5.53;3.83;;;;;;;0.63;100.00;62976.84;5071960;28;20208;-52
2024/01/09 10:16:08;;;;;;;5.37;3.17;;;;;;;0.56;100.00;62969.28;5072912;28;20193;-52
2024/01/09 10:18:35;;;;;;;5.50;2.70;;;;;;;0.61;100.00;62977.16;5072777;28;20208;-54
2024/01/09 10:21:01;;;;;;;4.30;2.93;;;;;;;0.98;100.00;63017.25;5072761;28;20212;-53
2024/01/09 10:23:28;;;;;;;3.80;2.60;;;;;;;0.69;100.00;62983.34;5054687;28;20204;-53
2024/01/09 10:25:54;;;;;;;3.70;2.33;;;;;;;0.02;99.74;62913.31;5054663;28;20193;-54
2024/01/09 10:28:21;;;;;;;6.90;3.93;;;;;;;0.10;100.00;62919.47;5054584;28;20216;-52
2024/01/09 10:30:47;;;;;;;3.07;2.77;;;;;;;0.46;100.00;62963.97;5054737;28;20205;-52
2024/01/09 10:33:14;;;;;;;6.37;3.37;;;;;;;0.57;100.00;62972.84;5054428;28;20215;-53
2024/01/09 10:35:46;;;;;;;5.87;2.97;;;;;;;0.49;100.00;62964.19;5072786;28;20228;-54
2024/01/09 10:38:12;;;;;;;4.87;3.20;;;;;;;0.55;100.00;62970.66;5072560;28;20209;-56
2024/01/09 10:40:38;;;;;;;6.10;3.40;;;;;;;0.53;100.00;62968.50;5072681;28;20284;-54
2024/01/09 10:43:04;;;;;;;7.23;4.20;;;;;;;0.52;100.00;62967.97;5072288;28;20221;-55
2024/01/09 10:45:31;;;;;;;6.23;3.90;;;;;;;0.59;100.00;62975.56;5054358;28;20196;-54
2024/01/09 10:47:58;;;;;;;6.13;3.50;;;;;;;0.44;100.00;62958.78;5072296;28;20291;-53
2024/01/09 10:50:25;;;;;;;6.03;3.53;;;;;;;0.35;100.00;62949.00;5072306;28;20186;-53
2024/01/09 10:52:51;;;;;;;7.77;3.53;;;;;;;0.46;100.00;62963.41;5072371;28;20208;-53
2024/01/09 10:55:19;;;;;;;6.70;3.50;;;;;;;0.38;100.00;62954.75;5072291;28;20212;-53
2024/01/09 10:57:46;;;;;;;4.20;3.03;;;;;;;0.38;100.00;62955.28;5072137;28;20682;-56
2024/01/09 11:00:13;;;;;;;7.23;4.13;;;;;;;0.38;100.00;62954.75;5071902;28;20654;-53
2024/01/09 11:02:39;;;;;;;6.57;4.20;;;;;;;0.32;100.00;62945.78;5071949;28;20224;-52
2024/01/09 11:05:10;;;;;;;7.90;4.47;;;;;;;0.18;100.00;62928.69;5072279;28;20540;-52
2024/01/09 11:07:36;;;;;;;7.80;3.87;;;;;;;0.14;100.00;62928.75;5072076;28;20231;-54
2024/01/09 11:10:03;;;;;;;6.17;3.33;;;;;;;0.11;100.00;62923.03;5053772;28;20651;-52
2024/01/09 11:12:42;;;;;;;6.17;3.97;;;;;;;-0.06;100.00;62905.16;5071961;28;20236;-53
2024/01/09 11:15:43;;;;;;;7.37;4.17;;;;;;;0.07;100.00;62919.25;5071903;28;20201;-51
2024/01/09 11:18:17;;;;;;;6.50;4.13;;;;;;;0.11;100.00;62923.03;5072202;28;20222;-52
2024/01/09 11:20:43;;;;;;;7.43;4.10;;;;;;;-0.34;100.00;62877.34;5071699;28;20189;-53
2024/01/09 11:23:12;;;;;;;6.60;4.27;;;;;;;-0.27;100.00;62883.00;5071080;28;20201;-57
2024/01/09 11:25:38;;;;;;;6.13;3.63;;;;;;;-0.44;100.00;62864.06;5053712;28;20279;-53